sensor_id;sensor_type;location;lat;lon;timestamp;P1;durP1;ratioP1;P2;durP2;ratioP2
26536;SDS011;14204;51.262;5.488;2022-07-22T00:02:25;9.15;;;5.43;;
26536;SDS011;14204;51.262;5.488;2022-07-22T00:04:51;12.40;;;6.22;;
26536;SDS011;14204;51.262;5.488;2022-07-22T00:07:16;8.55;;;6.38;;
26536;SDS011;14204;51.262;5.488;2022-07-22T00:09:42;9.90;;;6.07;;
26536;SDS011;14204;51.262;5.488;2022-07-22T00:12:08;10.38;;;5.72;;
26536;SDS011;14204;51.262;5.488;2022-07-22T00:14:34;13.60;;;6.20;;
26536;SDS011;14204;51.262;5.488;2022-07-22T00:16:59;13.15;;;5.88;;
26536;SDS011;14204;51.262;5.488;2022-07-22T00:19:25;18.02;;;6.38;;
26536;SDS011;14204;51.262;5.488;2022-07-22T00:21:51;11.90;;;6.25;;
26536;SDS011;14204;51.262;5.488;2022-07-22T00:24:17;16.38;;;6.07;;
26536;SDS011;14204;51.262;5.488;2022-07-22T00:26:43;13.77;;;6.80;;
26536;SDS011;14204;51.262;5.488;2022-07-22T00:29:09;17.13;;;7.22;;
26536;SDS011;14204;51.262;5.488;2022-07-22T00:31:35;13.52;;;6.18;;
26536;SDS011;14204;51.262;5.488;2022-07-22T00:34:01;14.35;;;6.68;;
26536;SDS011;14204;51.262;5.488;2022-07-22T00:36:27;11.82;;;6.75;;
26536;SDS011;14204;51.262;5.488;2022-07-22T00:38:54;15.23;;;7.47;;
26536;SDS011;14204;51.262;5.488;2022-07-22T00:41:20;11.38;;;7.03;;
26536;SDS011;14204;51.262;5.488;2022-07-22T00:43:57;15.02;;;7.13;;
26536;SDS011;14204;51.262;5.488;2022-07-22T00:46:25;13.23;;;7.80;;
26536;SDS011;14204;51.262;5.488;2022-07-22T00:48:51;13.05;;;6.55;;
26536;SDS011;14204;51.262;5.488;2022-07-22T00:51:18;15.07;;;6.68;;
26536;SDS011;14204;51.262;5.488;2022-07-22T00:53:45;13.73;;;7.50;;
26536;SDS011;14204;51.262;5.488;2022-07-22T00:56:11;13.68;;;7.75;;
26536;SDS011;14204;51.262;5.488;2022-07-22T00:58:37;11.75;;;7.40;;
26536;SDS011;14204;51.262;5.488;2022-07-22T01:01:03;15.40;;;7.43;;
26536;SDS011;14204;51.262;5.488;2022-07-22T01:03:29;12.40;;;7.03;;
26536;SDS011;14204;51.262;5.488;2022-07-22T01:05:55;19.30;;;7.65;;
26536;SDS011;14204;51.262;5.488;2022-07-22T01:08:21;11.40;;;6.97;;
26536;SDS011;14204;51.262;5.488;2022-07-22T01:10:47;18.30;;;7.57;;
26536;SDS011;14204;51.262;5.488;2022-07-22T01:13:13;11.80;;;7.60;;
26536;SDS011;14204;51.262;5.488;2022-07-22T01:15:38;12.77;;;7.40;;
26536;SDS011;14204;51.262;5.488;2022-07-22T01:18:04;16.60;;;7.75;;
26536;SDS011;14204;51.262;5.488;2022-07-22T01:20:30;16.60;;;8.32;;
26536;SDS011;14204;51.262;5.488;2022-07-22T01:22:56;18.65;;;8.02;;
26536;SDS011;14204;51.262;5.488;2022-07-22T01:25:22;18.58;;;7.90;;
26536;SDS011;14204;51.262;5.488;2022-07-22T01:27:49;14.32;;;7.22;;
26536;SDS011;14204;51.262;5.488;2022-07-22T01:30:14;12.40;;;7.45;;
26536;SDS011;14204;51.262;5.488;2022-07-22T01:32:40;15.20;;;7.30;;
26536;SDS011;14204;51.262;5.488;2022-07-22T01:35:06;18.60;;;7.82;;
26536;SDS011;14204;51.262;5.488;2022-07-22T01:37:35;12.23;;;7.47;;
26536;SDS011;14204;51.262;5.488;2022-07-22T01:40:01;12.55;;;7.35;;
26536;SDS011;14204;51.262;5.488;2022-07-22T01:42:27;14.00;;;7.40;;
26536;SDS011;14204;51.262;5.488;2022-07-22T01:44:53;14.40;;;7.68;;
26536;SDS011;14204;51.262;5.488;2022-07-22T01:47:19;11.85;;;6.22;;
26536;SDS011;14204;51.262;5.488;2022-07-22T01:49:45;13.35;;;6.93;;
26536;SDS011;14204;51.262;5.488;2022-07-22T01:52:10;16.45;;;7.28;;
26536;SDS011;14204;51.262;5.488;2022-07-22T01:54:36;18.15;;;7.65;;
26536;SDS011;14204;51.262;5.488;2022-07-22T01:57:02;16.27;;;7.72;;
26536;SDS011;14204;51.262;5.488;2022-07-22T01:59:28;18.30;;;7.85;;
26536;SDS011;14204;51.262;5.488;2022-07-22T02:01:53;19.35;;;8.45;;
26536;SDS011;14204;51.262;5.488;2022-07-22T02:04:19;15.00;;;8.32;;
26536;SDS011;14204;51.262;5.488;2022-07-22T02:06:45;13.20;;;7.80;;
26536;SDS011;14204;51.262;5.488;2022-07-22T02:09:11;13.40;;;8.75;;
26536;SDS011;14204;51.262;5.488;2022-07-22T02:11:37;18.52;;;8.93;;
26536;SDS011;14204;51.262;5.488;2022-07-22T02:14:02;15.23;;;8.77;;
26536;SDS011;14204;51.262;5.488;2022-07-22T02:16:28;21.00;;;9.27;;
26536;SDS011;14204;51.262;5.488;2022-07-22T02:18:54;22.15;;;9.27;;
26536;SDS011;14204;51.262;5.488;2022-07-22T02:21:20;15.70;;;9.13;;
26536;SDS011;14204;51.262;5.488;2022-07-22T02:23:46;19.02;;;9.45;;
26536;SDS011;14204;51.262;5.488;2022-07-22T02:26:12;18.33;;;8.88;;
26536;SDS011;14204;51.262;5.488;2022-07-22T02:28:38;20.45;;;9.02;;
26536;SDS011;14204;51.262;5.488;2022-07-22T02:31:03;19.35;;;9.02;;
26536;SDS011;14204;51.262;5.488;2022-07-22T02:33:29;20.75;;;9.38;;
26536;SDS011;14204;51.262;5.488;2022-07-22T02:35:55;18.95;;;8.88;;
26536;SDS011;14204;51.262;5.488;2022-07-22T02:38:21;22.63;;;9.50;;
26536;SDS011;14204;51.262;5.488;2022-07-22T02:40:47;18.08;;;8.50;;
26536;SDS011;14204;51.262;5.488;2022-07-22T02:43:13;19.38;;;9.25;;
26536;SDS011;14204;51.262;5.488;2022-07-22T02:45:38;18.08;;;9.27;;
26536;SDS011;14204;51.262;5.488;2022-07-22T02:48:04;19.33;;;10.40;;
26536;SDS011;14204;51.262;5.488;2022-07-22T02:50:30;22.83;;;9.70;;
26536;SDS011;14204;51.262;5.488;2022-07-22T02:52:57;16.85;;;9.00;;
26536;SDS011;14204;51.262;5.488;2022-07-22T02:55:24;19.65;;;9.30;;
26536;SDS011;14204;51.262;5.488;2022-07-22T02:57:50;17.35;;;9.85;;
26536;SDS011;14204;51.262;5.488;2022-07-22T03:00:15;18.60;;;9.35;;
26536;SDS011;14204;51.262;5.488;2022-07-22T03:02:42;16.95;;;9.32;;
26536;SDS011;14204;51.262;5.488;2022-07-22T03:05:07;19.17;;;9.63;;
26536;SDS011;14204;51.262;5.488;2022-07-22T03:07:33;18.83;;;9.63;;
26536;SDS011;14204;51.262;5.488;2022-07-22T03:09:59;17.27;;;9.32;;
26536;SDS011;14204;51.262;5.488;2022-07-22T03:12:25;19.15;;;8.50;;
26536;SDS011;14204;51.262;5.488;2022-07-22T03:14:51;22.65;;;9.50;;
26536;SDS011;14204;51.262;5.488;2022-07-22T03:17:16;23.38;;;9.88;;
26536;SDS011;14204;51.262;5.488;2022-07-22T03:19:42;19.27;;;10.02;;
26536;SDS011;14204;51.262;5.488;2022-07-22T03:22:07;13.75;;;9.82;;
26536;SDS011;14204;51.262;5.488;2022-07-22T03:24:33;17.35;;;8.52;;
26536;SDS011;14204;51.262;5.488;2022-07-22T03:26:59;21.23;;;9.95;;
26536;SDS011;14204;51.262;5.488;2022-07-22T03:29:24;21.27;;;9.63;;
26536;SDS011;14204;51.262;5.488;2022-07-22T03:31:50;19.50;;;9.48;;
26536;SDS011;14204;51.262;5.488;2022-07-22T03:34:16;20.95;;;9.73;;
26536;SDS011;14204;51.262;5.488;2022-07-22T03:36:41;15.52;;;8.77;;
26536;SDS011;14204;51.262;5.488;2022-07-22T03:39:07;15.38;;;8.98;;
26536;SDS011;14204;51.262;5.488;2022-07-22T03:41:33;15.77;;;8.60;;
26536;SDS011;14204;51.262;5.488;2022-07-22T03:43:58;14.68;;;9.82;;
26536;SDS011;14204;51.262;5.488;2022-07-22T03:46:24;16.02;;;8.13;;
26536;SDS011;14204;51.262;5.488;2022-07-22T03:48:50;18.58;;;9.50;;
26536;SDS011;14204;51.262;5.488;2022-07-22T03:51:15;18.92;;;8.95;;
26536;SDS011;14204;51.262;5.488;2022-07-22T03:53:41;17.27;;;8.70;;
26536;SDS011;14204;51.262;5.488;2022-07-22T03:56:07;20.73;;;9.70;;
26536;SDS011;14204;51.262;5.488;2022-07-22T03:58:33;21.90;;;10.05;;
26536;SDS011;14204;51.262;5.488;2022-07-22T04:00:58;17.23;;;8.75;;
26536;SDS011;14204;51.262;5.488;2022-07-22T04:03:24;16.02;;;9.48;;
26536;SDS011;14204;51.262;5.488;2022-07-22T04:05:50;15.00;;;9.02;;
26536;SDS011;14204;51.262;5.488;2022-07-22T04:08:17;25.73;;;10.18;;
26536;SDS011;14204;51.262;5.488;2022-07-22T04:10:43;14.48;;;9.57;;
26536;SDS011;14204;51.262;5.488;2022-07-22T04:13:09;15.85;;;10.10;;
26536;SDS011;14204;51.262;5.488;2022-07-22T04:15:35;17.50;;;10.70;;
26536;SDS011;14204;51.262;5.488;2022-07-22T04:18:01;21.05;;;10.43;;
26536;SDS011;14204;51.262;5.488;2022-07-22T04:20:26;20.95;;;11.38;;
26536;SDS011;14204;51.262;5.488;2022-07-22T04:22:53;16.85;;;10.68;;
26536;SDS011;14204;51.262;5.488;2022-07-22T04:25:18;17.05;;;9.93;;
26536;SDS011;14204;51.262;5.488;2022-07-22T04:27:44;19.33;;;9.57;;
26536;SDS011;14204;51.262;5.488;2022-07-22T04:30:10;19.75;;;10.82;;
26536;SDS011;14204;51.262;5.488;2022-07-22T04:32:36;24.60;;;12.02;;
26536;SDS011;14204;51.262;5.488;2022-07-22T04:35:02;20.27;;;11.63;;
26536;SDS011;14204;51.262;5.488;2022-07-22T04:37:29;20.30;;;11.07;;
26536;SDS011;14204;51.262;5.488;2022-07-22T04:39:56;22.67;;;11.65;;
26536;SDS011;14204;51.262;5.488;2022-07-22T04:42:21;28.25;;;11.82;;
26536;SDS011;14204;51.262;5.488;2022-07-22T04:44:47;23.00;;;11.68;;
26536;SDS011;14204;51.262;5.488;2022-07-22T04:47:12;21.92;;;10.38;;
26536;SDS011;14204;51.262;5.488;2022-07-22T04:49:38;19.88;;;11.55;;
26536;SDS011;14204;51.262;5.488;2022-07-22T04:52:04;25.50;;;11.85;;
26536;SDS011;14204;51.262;5.488;2022-07-22T04:54:30;20.02;;;11.32;;
26536;SDS011;14204;51.262;5.488;2022-07-22T04:56:56;19.92;;;11.73;;
26536;SDS011;14204;51.262;5.488;2022-07-22T04:59:22;23.80;;;11.95;;
26536;SDS011;14204;51.262;5.488;2022-07-22T05:01:47;23.20;;;12.23;;
26536;SDS011;14204;51.262;5.488;2022-07-22T05:04:13;22.27;;;11.48;;
26536;SDS011;14204;51.262;5.488;2022-07-22T05:06:40;22.90;;;10.45;;
26536;SDS011;14204;51.262;5.488;2022-07-22T05:09:06;20.48;;;10.60;;
26536;SDS011;14204;51.262;5.488;2022-07-22T05:11:32;16.77;;;10.05;;
26536;SDS011;14204;51.262;5.488;2022-07-22T05:13:58;16.60;;;10.27;;
26536;SDS011;14204;51.262;5.488;2022-07-22T05:16:24;21.42;;;10.45;;
26536;SDS011;14204;51.262;5.488;2022-07-22T05:18:49;17.20;;;11.05;;
26536;SDS011;14204;51.262;5.488;2022-07-22T05:21:15;19.40;;;11.50;;
26536;SDS011;14204;51.262;5.488;2022-07-22T05:23:41;19.88;;;11.18;;
26536;SDS011;14204;51.262;5.488;2022-07-22T05:26:07;19.70;;;11.35;;
26536;SDS011;14204;51.262;5.488;2022-07-22T05:28:34;19.85;;;11.00;;
26536;SDS011;14204;51.262;5.488;2022-07-22T05:31:00;23.45;;;11.35;;
26536;SDS011;14204;51.262;5.488;2022-07-22T05:33:25;21.08;;;11.50;;
26536;SDS011;14204;51.262;5.488;2022-07-22T05:35:51;22.45;;;12.85;;
26536;SDS011;14204;51.262;5.488;2022-07-22T05:38:17;27.48;;;12.43;;
26536;SDS011;14204;51.262;5.488;2022-07-22T05:40:42;25.27;;;11.82;;
26536;SDS011;14204;51.262;5.488;2022-07-22T05:43:08;22.45;;;11.48;;
26536;SDS011;14204;51.262;5.488;2022-07-22T05:45:34;19.23;;;11.38;;
26536;SDS011;14204;51.262;5.488;2022-07-22T05:47:59;21.45;;;11.80;;
26536;SDS011;14204;51.262;5.488;2022-07-22T05:50:26;29.08;;;12.02;;
26536;SDS011;14204;51.262;5.488;2022-07-22T05:52:52;25.60;;;11.07;;
26536;SDS011;14204;51.262;5.488;2022-07-22T05:55:17;18.90;;;11.27;;
26536;SDS011;14204;51.262;5.488;2022-07-22T05:57:43;20.45;;;11.00;;
26536;SDS011;14204;51.262;5.488;2022-07-22T06:00:09;23.65;;;11.20;;
26536;SDS011;14204;51.262;5.488;2022-07-22T06:02:35;24.40;;;10.52;;
26536;SDS011;14204;51.262;5.488;2022-07-22T06:05:00;23.65;;;10.70;;
26536;SDS011;14204;51.262;5.488;2022-07-22T06:07:27;21.27;;;10.65;;
26536;SDS011;14204;51.262;5.488;2022-07-22T06:09:53;25.73;;;11.45;;
26536;SDS011;14204;51.262;5.488;2022-07-22T06:12:19;20.88;;;10.13;;
26536;SDS011;14204;51.262;5.488;2022-07-22T06:14:44;18.10;;;9.88;;
26536;SDS011;14204;51.262;5.488;2022-07-22T06:17:11;24.23;;;11.15;;
26536;SDS011;14204;51.262;5.488;2022-07-22T06:19:37;19.50;;;10.02;;
26536;SDS011;14204;51.262;5.488;2022-07-22T06:22:03;17.90;;;10.40;;
26536;SDS011;14204;51.262;5.488;2022-07-22T06:24:29;15.35;;;9.02;;
26536;SDS011;14204;51.262;5.488;2022-07-22T06:26:55;21.58;;;9.70;;
26536;SDS011;14204;51.262;5.488;2022-07-22T06:29:20;17.02;;;8.50;;
26536;SDS011;14204;51.262;5.488;2022-07-22T06:31:46;24.38;;;9.40;;
26536;SDS011;14204;51.262;5.488;2022-07-22T06:34:12;18.70;;;9.50;;
26536;SDS011;14204;51.262;5.488;2022-07-22T06:36:38;19.77;;;9.98;;
26536;SDS011;14204;51.262;5.488;2022-07-22T06:39:04;24.13;;;9.32;;
26536;SDS011;14204;51.262;5.488;2022-07-22T06:41:29;14.40;;;7.97;;
26536;SDS011;14204;51.262;5.488;2022-07-22T06:43:55;18.13;;;7.70;;
26536;SDS011;14204;51.262;5.488;2022-07-22T06:46:21;14.35;;;7.75;;
26536;SDS011;14204;51.262;5.488;2022-07-22T06:48:46;15.07;;;7.95;;
26536;SDS011;14204;51.262;5.488;2022-07-22T06:51:12;14.35;;;7.43;;
26536;SDS011;14204;51.262;5.488;2022-07-22T06:53:38;13.60;;;7.45;;
26536;SDS011;14204;51.262;5.488;2022-07-22T06:56:04;21.05;;;9.13;;
26536;SDS011;14204;51.262;5.488;2022-07-22T06:58:30;18.58;;;8.02;;
26536;SDS011;14204;51.262;5.488;2022-07-22T07:00:56;17.30;;;8.27;;
26536;SDS011;14204;51.262;5.488;2022-07-22T07:03:21;17.88;;;7.75;;
26536;SDS011;14204;51.262;5.488;2022-07-22T07:05:50;15.07;;;7.57;;
26536;SDS011;14204;51.262;5.488;2022-07-22T07:08:16;16.00;;;8.00;;
26536;SDS011;14204;51.262;5.488;2022-07-22T07:10:42;17.55;;;7.97;;
26536;SDS011;14204;51.262;5.488;2022-07-22T07:13:08;12.07;;;6.85;;
26536;SDS011;14204;51.262;5.488;2022-07-22T07:15:34;15.35;;;6.65;;
26536;SDS011;14204;51.262;5.488;2022-07-22T07:18:00;13.00;;;6.47;;
26536;SDS011;14204;51.262;5.488;2022-07-22T07:20:25;14.52;;;6.70;;
26536;SDS011;14204;51.262;5.488;2022-07-22T07:22:51;9.65;;;5.53;;
26536;SDS011;14204;51.262;5.488;2022-07-22T07:25:17;8.15;;;4.90;;
26536;SDS011;14204;51.262;5.488;2022-07-22T07:27:43;9.65;;;4.97;;
26536;SDS011;14204;51.262;5.488;2022-07-22T07:30:09;7.25;;;4.80;;
26536;SDS011;14204;51.262;5.488;2022-07-22T07:32:35;4.20;;;2.30;;
26536;SDS011;14204;51.262;5.488;2022-07-22T07:35:03;12.85;;;3.58;;
26536;SDS011;14204;51.262;5.488;2022-07-22T07:37:30;6.90;;;2.90;;
26536;SDS011;14204;51.262;5.488;2022-07-22T07:39:56;13.25;;;3.70;;
26536;SDS011;14204;51.262;5.488;2022-07-22T07:42:22;6.32;;;3.30;;
26536;SDS011;14204;51.262;5.488;2022-07-22T07:44:48;5.68;;;2.78;;
26536;SDS011;14204;51.262;5.488;2022-07-22T07:47:13;5.88;;;2.67;;
26536;SDS011;14204;51.262;5.488;2022-07-22T07:49:43;6.03;;;2.55;;
26536;SDS011;14204;51.262;5.488;2022-07-22T07:52:09;6.97;;;2.72;;
26536;SDS011;14204;51.262;5.488;2022-07-22T07:54:35;7.32;;;2.88;;
26536;SDS011;14204;51.262;5.488;2022-07-22T07:57:01;6.22;;;2.97;;
26536;SDS011;14204;51.262;5.488;2022-07-22T07:59:26;7.88;;;2.53;;
26536;SDS011;14204;51.262;5.488;2022-07-22T08:01:52;5.40;;;2.78;;
26536;SDS011;14204;51.262;5.488;2022-07-22T08:04:18;5.25;;;3.00;;
26536;SDS011;14204;51.262;5.488;2022-07-22T08:06:43;5.32;;;2.10;;
26536;SDS011;14204;51.262;5.488;2022-07-22T08:09:09;8.15;;;2.25;;
26536;SDS011;14204;51.262;5.488;2022-07-22T08:11:35;3.17;;;2.05;;
26536;SDS011;14204;51.262;5.488;2022-07-22T08:14:01;2.50;;;1.77;;
26536;SDS011;14204;51.262;5.488;2022-07-22T08:16:26;7.30;;;2.22;;
26536;SDS011;14204;51.262;5.488;2022-07-22T08:18:52;2.42;;;2.05;;
26536;SDS011;14204;51.262;5.488;2022-07-22T08:21:17;7.80;;;2.60;;
26536;SDS011;14204;51.262;5.488;2022-07-22T08:23:44;6.68;;;2.30;;
26536;SDS011;14204;51.262;5.488;2022-07-22T08:26:09;5.53;;;2.20;;
26536;SDS011;14204;51.262;5.488;2022-07-22T08:28:35;3.70;;;2.08;;
26536;SDS011;14204;51.262;5.488;2022-07-22T08:31:01;4.50;;;2.47;;
26536;SDS011;14204;51.262;5.488;2022-07-22T08:33:26;6.63;;;2.30;;
26536;SDS011;14204;51.262;5.488;2022-07-22T08:35:52;5.03;;;2.40;;
26536;SDS011;14204;51.262;5.488;2022-07-22T08:38:17;5.00;;;2.50;;
26536;SDS011;14204;51.262;5.488;2022-07-22T08:40:43;4.97;;;2.10;;
26536;SDS011;14204;51.262;5.488;2022-07-22T08:43:09;6.75;;;2.63;;
26536;SDS011;14204;51.262;5.488;2022-07-22T08:45:34;6.22;;;2.60;;
26536;SDS011;14204;51.262;5.488;2022-07-22T08:48:00;2.72;;;2.17;;
26536;SDS011;14204;51.262;5.488;2022-07-22T08:50:28;7.38;;;2.28;;
26536;SDS011;14204;51.262;5.488;2022-07-22T08:52:55;6.40;;;2.50;;
26536;SDS011;14204;51.262;5.488;2022-07-22T08:55:21;4.68;;;2.42;;
26536;SDS011;14204;51.262;5.488;2022-07-22T08:57:47;8.10;;;2.40;;
26536;SDS011;14204;51.262;5.488;2022-07-22T09:00:18;6.65;;;2.13;;
26536;SDS011;14204;51.262;5.488;2022-07-22T09:02:45;6.70;;;2.55;;
26536;SDS011;14204;51.262;5.488;2022-07-22T09:05:13;7.15;;;3.00;;
26536;SDS011;14204;51.262;5.488;2022-07-22T09:07:40;6.05;;;2.35;;
26536;SDS011;14204;51.262;5.488;2022-07-22T09:10:09;5.05;;;2.40;;
26536;SDS011;14204;51.262;5.488;2022-07-22T09:12:52;5.15;;;2.40;;
26536;SDS011;14204;51.262;5.488;2022-07-22T09:15:30;4.28;;;2.80;;
26536;SDS011;14204;51.262;5.488;2022-07-22T09:17:59;8.15;;;2.53;;
26536;SDS011;14204;51.262;5.488;2022-07-22T09:20:25;3.55;;;2.38;;
26536;SDS011;14204;51.262;5.488;2022-07-22T09:22:51;4.68;;;2.45;;
26536;SDS011;14204;51.262;5.488;2022-07-22T09:27:46;4.22;;;2.50;;
26536;SDS011;14204;51.262;5.488;2022-07-22T09:30:16;9.88;;;2.70;;
26536;SDS011;14204;51.262;5.488;2022-07-22T09:32:47;3.97;;;2.55;;
26536;SDS011;14204;51.262;5.488;2022-07-22T09:35:13;5.53;;;2.70;;
26536;SDS011;14204;51.262;5.488;2022-07-22T09:37:50;4.43;;;2.33;;
26536;SDS011;14204;51.262;5.488;2022-07-22T09:40:24;4.05;;;2.42;;
26536;SDS011;14204;51.262;5.488;2022-07-22T09:45:19;6.70;;;2.70;;
26536;SDS011;14204;51.262;5.488;2022-07-22T09:47:45;6.15;;;2.17;;
26536;SDS011;14204;51.262;5.488;2022-07-22T09:52:46;6.85;;;2.33;;
26536;SDS011;14204;51.262;5.488;2022-07-22T09:55:13;4.15;;;2.25;;
26536;SDS011;14204;51.262;5.488;2022-07-22T09:57:40;2.67;;;2.35;;
26536;SDS011;14204;51.262;5.488;2022-07-22T10:00:07;4.38;;;2.60;;
26536;SDS011;14204;51.262;5.488;2022-07-22T10:02:34;5.78;;;2.53;;
26536;SDS011;14204;51.262;5.488;2022-07-22T10:05:10;5.88;;;2.38;;
26536;SDS011;14204;51.262;5.488;2022-07-22T10:07:37;2.65;;;2.45;;
26536;SDS011;14204;51.262;5.488;2022-07-22T10:10:10;4.65;;;2.38;;
26536;SDS011;14204;51.262;5.488;2022-07-22T10:12:38;4.07;;;2.63;;
26536;SDS011;14204;51.262;5.488;2022-07-22T10:15:05;5.35;;;2.50;;
26536;SDS011;14204;51.262;5.488;2022-07-22T10:17:33;5.20;;;2.35;;
26536;SDS011;14204;51.262;5.488;2022-07-22T10:20:00;3.33;;;2.47;;
26536;SDS011;14204;51.262;5.488;2022-07-22T10:25:07;4.82;;;3.08;;
26536;SDS011;14204;51.262;5.488;2022-07-22T10:30:12;4.28;;;2.60;;
26536;SDS011;14204;51.262;5.488;2022-07-22T10:32:39;5.55;;;2.50;;
26536;SDS011;14204;51.262;5.488;2022-07-22T10:48:00;3.83;;;2.15;;
26536;SDS011;14204;51.262;5.488;2022-07-22T10:53:06;6.75;;;2.47;;
26536;SDS011;14204;51.262;5.488;2022-07-22T10:55:34;3.33;;;2.57;;
26536;SDS011;14204;51.262;5.488;2022-07-22T10:58:00;4.88;;;2.53;;
26536;SDS011;14204;51.262;5.488;2022-07-22T11:00:46;5.65;;;3.10;;
26536;SDS011;14204;51.262;5.488;2022-07-22T11:03:12;4.25;;;2.63;;
26536;SDS011;14204;51.262;5.488;2022-07-22T11:05:38;2.65;;;2.33;;
26536;SDS011;14204;51.262;5.488;2022-07-22T11:08:08;3.33;;;2.72;;
26536;SDS011;14204;51.262;5.488;2022-07-22T11:10:34;4.20;;;3.03;;
26536;SDS011;14204;51.262;5.488;2022-07-22T11:13:00;6.00;;;2.78;;
26536;SDS011;14204;51.262;5.488;2022-07-22T11:15:25;4.70;;;3.00;;
26536;SDS011;14204;51.262;5.488;2022-07-22T11:17:55;5.53;;;2.55;;
26536;SDS011;14204;51.262;5.488;2022-07-22T11:20:22;10.25;;;2.28;;
26536;SDS011;14204;51.262;5.488;2022-07-22T11:22:48;5.85;;;2.42;;
26536;SDS011;14204;51.262;5.488;2022-07-22T11:25:14;4.65;;;2.40;;
26536;SDS011;14204;51.262;5.488;2022-07-22T11:27:48;4.85;;;2.97;;
26536;SDS011;14204;51.262;5.488;2022-07-22T11:30:17;5.10;;;2.17;;
26536;SDS011;14204;51.262;5.488;2022-07-22T11:32:42;3.00;;;2.33;;
26536;SDS011;14204;51.262;5.488;2022-07-22T11:35:12;5.88;;;2.45;;
26536;SDS011;14204;51.262;5.488;2022-07-22T11:37:37;4.10;;;2.63;;
26536;SDS011;14204;51.262;5.488;2022-07-22T11:40:04;5.25;;;2.67;;
26536;SDS011;14204;51.262;5.488;2022-07-22T11:42:32;9.10;;;2.70;;
26536;SDS011;14204;51.262;5.488;2022-07-22T11:44:58;6.05;;;2.55;;
26536;SDS011;14204;51.262;5.488;2022-07-22T11:47:24;3.85;;;2.50;;
26536;SDS011;14204;51.262;5.488;2022-07-22T11:49:49;2.75;;;2.33;;
26536;SDS011;14204;51.262;5.488;2022-07-22T11:52:15;2.65;;;2.17;;
26536;SDS011;14204;51.262;5.488;2022-07-22T11:54:42;3.65;;;2.05;;
26536;SDS011;14204;51.262;5.488;2022-07-22T11:57:08;5.03;;;2.17;;
26536;SDS011;14204;51.262;5.488;2022-07-22T11:59:35;3.95;;;2.55;;
26536;SDS011;14204;51.262;5.488;2022-07-22T12:02:01;4.43;;;2.67;;
26536;SDS011;14204;51.262;5.488;2022-07-22T12:04:28;4.38;;;2.33;;
26536;SDS011;14204;51.262;5.488;2022-07-22T12:06:57;7.43;;;3.08;;
26536;SDS011;14204;51.262;5.488;2022-07-22T12:09:24;4.90;;;2.38;;
26536;SDS011;14204;51.262;5.488;2022-07-22T12:11:54;7.25;;;3.17;;
26536;SDS011;14204;51.262;5.488;2022-07-22T12:14:23;5.15;;;2.33;;
26536;SDS011;14204;51.262;5.488;2022-07-22T12:16:55;6.65;;;3.30;;
26536;SDS011;14204;51.262;5.488;2022-07-22T12:19:26;5.70;;;2.78;;
26536;SDS011;14204;51.262;5.488;2022-07-22T12:22:10;2.90;;;2.50;;
26536;SDS011;14204;51.262;5.488;2022-07-22T12:24:42;6.68;;;2.83;;
26536;SDS011;14204;51.262;5.488;2022-07-22T12:27:13;7.88;;;2.92;;
26536;SDS011;14204;51.262;5.488;2022-07-22T12:32:10;8.38;;;2.67;;
26536;SDS011;14204;51.262;5.488;2022-07-22T12:34:39;5.70;;;2.80;;
26536;SDS011;14204;51.262;5.488;2022-07-22T12:42:41;5.20;;;2.95;;
26536;SDS011;14204;51.262;5.488;2022-07-22T12:45:09;3.92;;;2.58;;
26536;SDS011;14204;51.262;5.488;2022-07-22T12:50:42;6.00;;;3.15;;
26536;SDS011;14204;51.262;5.488;2022-07-22T12:53:09;4.90;;;3.13;;
26536;SDS011;14204;51.262;5.488;2022-07-22T12:55:37;33.78;;;11.80;;
26536;SDS011;14204;51.262;5.488;2022-07-22T12:58:07;19.85;;;8.55;;
26536;SDS011;14204;51.262;5.488;2022-07-22T13:00:37;8.75;;;4.93;;
26536;SDS011;14204;51.262;5.488;2022-07-22T13:03:05;12.05;;;4.47;;
26536;SDS011;14204;51.262;5.488;2022-07-22T13:05:31;6.45;;;3.45;;
26536;SDS011;14204;51.262;5.488;2022-07-22T13:07:57;6.47;;;1.98;;
26536;SDS011;14204;51.262;5.488;2022-07-22T13:10:23;6.07;;;2.33;;
26536;SDS011;14204;51.262;5.488;2022-07-22T13:12:50;13.82;;;2.95;;
26536;SDS011;14204;51.262;5.488;2022-07-22T13:15:16;6.68;;;2.97;;
26536;SDS011;14204;51.262;5.488;2022-07-22T13:17:42;6.85;;;2.58;;
26536;SDS011;14204;51.262;5.488;2022-07-22T13:20:09;7.90;;;2.45;;
26536;SDS011;14204;51.262;5.488;2022-07-22T13:22:36;3.92;;;2.50;;
26536;SDS011;14204;51.262;5.488;2022-07-22T13:25:02;4.00;;;2.40;;
26536;SDS011;14204;51.262;5.488;2022-07-22T13:27:28;6.18;;;2.90;;
26536;SDS011;14204;51.262;5.488;2022-07-22T13:29:54;6.32;;;3.35;;
26536;SDS011;14204;51.262;5.488;2022-07-22T13:32:20;5.65;;;2.30;;
26536;SDS011;14204;51.262;5.488;2022-07-22T13:34:45;3.85;;;2.47;;
26536;SDS011;14204;51.262;5.488;2022-07-22T13:37:11;4.57;;;2.20;;
26536;SDS011;14204;51.262;5.488;2022-07-22T13:39:37;5.03;;;2.30;;
26536;SDS011;14204;51.262;5.488;2022-07-22T13:42:03;4.32;;;2.80;;
26536;SDS011;14204;51.262;5.488;2022-07-22T13:44:29;6.03;;;2.70;;
26536;SDS011;14204;51.262;5.488;2022-07-22T13:46:57;5.38;;;2.58;;
26536;SDS011;14204;51.262;5.488;2022-07-22T13:49:23;4.47;;;2.90;;
26536;SDS011;14204;51.262;5.488;2022-07-22T13:51:49;4.78;;;2.70;;
26536;SDS011;14204;51.262;5.488;2022-07-22T13:54:16;3.60;;;2.78;;
26536;SDS011;14204;51.262;5.488;2022-07-22T13:56:42;7.32;;;2.50;;
26536;SDS011;14204;51.262;5.488;2022-07-22T13:59:09;5.35;;;2.78;;
26536;SDS011;14204;51.262;5.488;2022-07-22T14:01:36;4.95;;;2.50;;
26536;SDS011;14204;51.262;5.488;2022-07-22T14:04:02;3.67;;;2.45;;
26536;SDS011;14204;51.262;5.488;2022-07-22T14:06:29;4.68;;;2.45;;
26536;SDS011;14204;51.262;5.488;2022-07-22T14:08:54;4.25;;;2.22;;
26536;SDS011;14204;51.262;5.488;2022-07-22T14:11:20;5.00;;;2.90;;
26536;SDS011;14204;51.262;5.488;2022-07-22T14:13:46;5.68;;;2.95;;
26536;SDS011;14204;51.262;5.488;2022-07-22T14:16:11;7.18;;;2.67;;
26536;SDS011;14204;51.262;5.488;2022-07-22T14:18:55;6.30;;;2.30;;
26536;SDS011;14204;51.262;5.488;2022-07-22T14:21:21;3.47;;;2.22;;
26536;SDS011;14204;51.262;5.488;2022-07-22T14:23:47;5.28;;;2.70;;
26536;SDS011;14204;51.262;5.488;2022-07-22T14:26:12;4.28;;;2.25;;
26536;SDS011;14204;51.262;5.488;2022-07-22T14:28:38;5.35;;;2.67;;
26536;SDS011;14204;51.262;5.488;2022-07-22T14:31:04;3.13;;;2.60;;
26536;SDS011;14204;51.262;5.488;2022-07-22T14:33:30;4.50;;;3.08;;
26536;SDS011;14204;51.262;5.488;2022-07-22T14:35:55;7.95;;;3.28;;
26536;SDS011;14204;51.262;5.488;2022-07-22T14:38:21;3.97;;;2.50;;
26536;SDS011;14204;51.262;5.488;2022-07-22T14:40:47;4.88;;;2.80;;
26536;SDS011;14204;51.262;5.488;2022-07-22T14:43:12;5.03;;;2.75;;
26536;SDS011;14204;51.262;5.488;2022-07-22T14:45:38;6.30;;;2.60;;
26536;SDS011;14204;51.262;5.488;2022-07-22T14:48:04;6.82;;;2.92;;
26536;SDS011;14204;51.262;5.488;2022-07-22T14:50:30;3.58;;;2.13;;
26536;SDS011;14204;51.262;5.488;2022-07-22T14:52:56;10.30;;;2.72;;
26536;SDS011;14204;51.262;5.488;2022-07-22T14:55:21;4.85;;;2.40;;
26536;SDS011;14204;51.262;5.488;2022-07-22T14:57:47;3.03;;;1.98;;
26536;SDS011;14204;51.262;5.488;2022-07-22T15:00:13;3.47;;;2.50;;
26536;SDS011;14204;51.262;5.488;2022-07-22T15:02:38;4.68;;;2.50;;
26536;SDS011;14204;51.262;5.488;2022-07-22T15:05:04;5.90;;;3.45;;
26536;SDS011;14204;51.262;5.488;2022-07-22T15:07:30;6.82;;;3.17;;
26536;SDS011;14204;51.262;5.488;2022-07-22T15:09:56;5.43;;;2.55;;
26536;SDS011;14204;51.262;5.488;2022-07-22T15:12:22;4.47;;;2.47;;
26536;SDS011;14204;51.262;5.488;2022-07-22T15:14:47;4.47;;;2.70;;